Time;durP1;ratioP1;P1;durP2;ratioP2;P2;SDS_P1;SDS_P2;PMS_P1;PMS_P2;Temp;Humidity;BMP_temperature;BMP_pressure;BME280_temperature;BME280_humidity;BME280_pressure;Samples;Min_cycle;Max_cycle;Signal;HPM_P1;HPM_P2
2023/12/12 00:02:13;;;;;;;2.90;1.77;;;9.40;99.90;;;;;;6153982;23;20462;-70
2023/12/12 00:04:59;;;;;;;2.58;1.90;;;9.40;99.90;;;;;;6152485;23;20006;-71
2023/12/12 00:07:45;;;;;;;2.88;1.80;;;9.40;99.90;;;;;;6152357;23;20049;-71
2023/12/12 00:10:30;;;;;;;2.88;2.08;;;9.40;99.90;;;;;;6152520;23;20009;-72
2023/12/12 00:13:16;;;;;;;3.40;2.42;;;9.50;99.90;;;;;;6152176;23;20116;-71
2023/12/12 00:16:02;;;;;;;2.70;1.95;;;9.40;99.90;;;;;;6151784;23;20016;-70
2023/12/12 00:18:48;;;;;;;4.82;2.17;;;9.40;99.90;;;;;;6151112;23;20016;-70
2023/12/12 00:21:34;;;;;;;3.20;2.25;;;9.50;99.90;;;;;;6150915;23;20005;-71
2023/12/12 00:24:20;;;;;;;3.40;2.40;;;9.50;99.90;;;;;;6151621;23;20088;-70
2023/12/12 00:27:06;;;;;;;3.05;2.17;;;9.40;99.90;;;;;;6152310;23;20010;-70
2023/12/12 00:29:52;;;;;;;4.55;2.20;;;9.50;99.90;;;;;;6153238;23;20021;-70
2023/12/12 00:32:38;;;;;;;3.63;2.30;;;9.50;99.90;;;;;;6151794;23;20084;-70
2023/12/12 00:35:24;;;;;;;4.68;2.30;;;9.40;99.90;;;;;;6150586;23;20015;-70
2023/12/12 00:38:10;;;;;;;3.30;2.17;;;9.40;99.90;;;;;;6151934;23;20025;-70
2023/12/12 00:40:56;;;;;;;2.90;2.05;;;9.40;99.90;;;;;;6153025;23;20029;-69
2023/12/12 00:43:42;;;;;;;3.85;2.38;;;9.40;99.90;;;;;;6150680;23;20038;-69
2023/12/12 00:46:28;;;;;;;4.03;2.35;;;9.30;99.90;;;;;;6152558;23;20335;-69
2023/12/12 00:49:14;;;;;;;5.05;2.40;;;9.30;99.90;;;;;;6150549;23;20447;-69
2023/12/12 00:52:02;;;;;;;4.78;2.22;;;9.30;99.90;;;;;;6151350;23;20376;-68
2023/12/12 00:54:47;;;;;;;2.58;1.77;;;9.30;99.90;;;;;;6150442;23;20420;-69
2023/12/12 00:57:33;;;;;;;4.20;2.50;;;9.30;99.90;;;;;;6152026;23;20550;-69
2023/12/12 01:00:19;;;;;;;3.55;2.47;;;9.30;99.90;;;;;;6151789;23;20033;-68
2023/12/12 01:03:05;;;;;;;4.50;2.22;;;9.30;99.90;;;;;;6151863;23;20006;-68
2023/12/12 01:05:51;;;;;;;3.58;2.20;;;9.30;99.90;;;;;;6151783;23;20002;-69
2023/12/12 01:08:37;;;;;;;4.38;2.50;;;9.30;99.90;;;;;;6149442;23;20423;-68
2023/12/12 01:11:23;;;;;;;4.25;2.72;;;9.30;99.90;;;;;;6153020;23;20325;-68
2023/12/12 01:14:09;;;;;;;3.83;2.55;;;9.40;99.90;;;;;;6151988;23;20009;-68
2023/12/12 01:16:55;;;;;;;4.97;2.30;;;9.40;99.90;;;;;;6151684;23;20001;-68
2023/12/12 01:19:41;;;;;;;3.33;2.33;;;9.40;99.90;;;;;;6152657;23;20032;-68
2023/12/12 01:22:27;;;;;;;4.50;2.83;;;9.30;99.90;;;;;;6152787;23;20009;-68
2023/12/12 01:25:13;;;;;;;4.65;3.00;;;9.30;99.90;;;;;;6151718;23;20037;-68
2023/12/12 01:27:59;;;;;;;6.97;2.83;;;9.30;99.90;;;;;;6152086;23;20021;-69
2023/12/12 01:30:45;;;;;;;3.45;2.33;;;9.30;99.90;;;;;;6152346;23;20041;-69
2023/12/12 01:33:31;;;;;;;4.63;3.17;;;9.30;99.90;;;;;;6152668;23;20460;-69
2023/12/12 01:36:17;;;;;;;5.22;3.10;;;9.30;99.90;;;;;;6151070;23;20384;-69
2023/12/12 01:39:04;;;;;;;3.78;2.50;;;9.30;99.90;;;;;;6151693;23;20009;-69
2023/12/12 01:41:50;;;;;;;4.15;2.60;;;9.40;99.90;;;;;;6150077;23;20405;-69
2023/12/12 01:44:36;;;;;;;3.95;2.90;;;9.30;99.90;;;;;;6149692;23;20013;-69
2023/12/12 01:47:23;;;;;;;3.63;2.72;;;9.40;99.90;;;;;;6151958;23;20010;-69
2023/12/12 01:50:09;;;;;;;4.13;2.88;;;9.40;99.90;;;;;;6148317;23;20010;-69
2023/12/12 01:52:55;;;;;;;4.25;2.83;;;9.40;99.90;;;;;;6150499;23;20348;-69
2023/12/12 01:55:42;;;;;;;3.78;2.60;;;9.40;99.90;;;;;;6150414;23;20097;-69
2023/12/12 01:58:28;;;;;;;5.93;2.53;;;9.50;99.90;;;;;;6149299;23;20432;-69
2023/12/12 02:01:15;;;;;;;5.60;2.78;;;9.40;99.90;;;;;;6149948;23;20009;-69
2023/12/12 02:04:01;;;;;;;4.65;2.70;;;9.50;99.90;;;;;;6150834;23;20010;-69
2023/12/12 02:06:49;;;;;;;3.53;2.53;;;9.40;99.90;;;;;;6149933;23;20081;-69
2023/12/12 02:09:55;;;;;;;4.43;2.50;;;9.40;99.90;;;;;;6150054;23;20017;-69
2023/12/12 02:12:41;;;;;;;4.05;2.50;;;9.40;99.90;;;;;;6089242;23;20010;-69
2023/12/12 02:15:27;;;;;;;4.70;2.92;;;9.40;99.90;;;;;;6091065;23;20063;-69
2023/12/12 02:18:16;;;;;;;4.22;2.60;;;9.40;99.90;;;;;;6090046;23;20086;-69
2023/12/12 02:21:02;;;;;;;3.47;2.20;;;9.40;99.90;;;;;;6089851;23;20006;-70
2023/12/12 02:23:48;;;;;;;4.03;2.83;;;9.40;99.90;;;;;;6089599;23;20002;-70
2023/12/12 02:26:34;;;;;;;3.17;2.35;;;9.40;99.90;;;;;;6088275;23;20010;-69
2023/12/12 02:29:20;;;;;;;3.60;2.38;;;9.40;99.90;;;;;;6088240;23;20392;-69
2023/12/12 02:32:06;;;;;;;3.22;2.10;;;9.30;99.90;;;;;;6089335;23;20041;-69
2023/12/12 02:34:52;;;;;;;3.88;2.70;;;9.30;99.90;;;;;;6090100;23;20345;-69
2023/12/12 02:37:38;;;;;;;4.25;2.20;;;9.30;99.90;;;;;;6090987;23;20007;-69
2023/12/12 02:40:24;;;;;;;2.90;2.10;;;9.30;99.90;;;;;;6092524;23;20077;-69
2023/12/12 02:43:10;;;;;;;3.75;2.30;;;9.40;99.90;;;;;;6116818;23;20084;-69
2023/12/12 02:45:56;;;;;;;3.00;2.20;;;9.40;99.90;;;;;;6153698;23;20010;-69
2023/12/12 02:48:41;;;;;;;3.65;2.65;;;9.40;99.90;;;;;;6153043;23;20052;-69
2023/12/12 02:51:27;;;;;;;3.75;2.63;;;9.40;99.90;;;;;;6152924;23;20395;-70
2023/12/12 02:54:13;;;;;;;4.45;2.92;;;9.40;99.90;;;;;;6153146;23;20394;-69
2023/12/12 02:56:59;;;;;;;4.47;3.00;;;9.40;99.90;;;;;;6153008;23;20396;-66
2023/12/12 02:59:45;;;;;;;4.82;3.10;;;9.40;99.90;;;;;;6153553;23;20016;-66
2023/12/12 03:02:33;;;;;;;5.82;3.60;;;9.50;99.90;;;;;;6152053;23;20009;-66
2023/12/12 03:05:18;;;;;;;5.90;3.85;;;9.50;99.90;;;;;;6153105;23;20088;-66
2023/12/12 03:08:04;;;;;;;6.47;3.92;;;9.50;99.90;;;;;;6151874;23;20045;-66
2023/12/12 03:10:50;;;;;;;5.60;3.92;;;9.50;99.90;;;;;;6153688;23;20009;-66
2023/12/12 03:13:36;;;;;;;4.95;3.63;;;9.60;99.90;;;;;;6153943;23;20009;-66
2023/12/12 03:16:22;;;;;;;6.78;4.13;;;9.60;99.90;;;;;;6152937;23;20093;-66
2023/12/12 03:19:09;;;;;;;6.65;5.10;;;9.60;99.90;;;;;;6150794;23;20009;-66
2023/12/12 03:21:55;;;;;;;6.60;4.45;;;9.70;99.90;;;;;;6151176;23;20132;-66
2023/12/12 03:24:41;;;;;;;5.97;3.95;;;9.70;99.90;;;;;;6153202;23;20010;-66
2023/12/12 03:27:26;;;;;;;6.45;4.78;;;9.70;99.90;;;;;;6152224;23;20005;-66
2023/12/12 03:30:12;;;;;;;8.02;4.30;;;9.80;99.90;;;;;;6153278;23;20014;-66
2023/12/12 03:32:58;;;;;;;5.60;4.07;;;9.80;99.90;;;;;;6153013;23;20407;-66
2023/12/12 03:35:44;;;;;;;7.03;4.65;;;9.80;99.90;;;;;;6152639;23;20032;-65
2023/12/12 03:38:30;;;;;;;5.60;4.38;;;9.80;99.90;;;;;;6151304;23;20013;-65
2023/12/12 03:41:17;;;;;;;7.05;5.18;;;9.80;99.90;;;;;;6153058;23;20096;-65
2023/12/12 03:44:03;;;;;;;8.20;4.50;;;9.80;99.90;;;;;;6152917;23;20085;-66
2023/12/12 03:46:49;;;;;;;6.57;4.80;;;9.80;99.90;;;;;;6153029;23;20180;-65
2023/12/12 03:49:34;;;;;;;7.30;4.72;;;9.80;99.90;;;;;;6153399;23;20009;-74
2023/12/12 03:52:20;;;;;;;5.65;4.15;;;9.80;99.90;;;;;;6152181;23;20121;-75
2023/12/12 03:55:07;;;;;;;9.18;5.22;;;9.80;99.90;;;;;;6151516;23;20005;-74
2023/12/12 03:57:52;;;;;;;5.43;4.10;;;9.80;99.90;;;;;;6153517;23;20025;-74
2023/12/12 04:00:38;;;;;;;6.28;4.20;;;9.80;99.90;;;;;;6152850;23;20046;-74
2023/12/12 04:03:25;;;;;;;6.90;4.28;;;9.90;99.90;;;;;;6152807;23;20013;-75
2023/12/12 04:06:10;;;;;;;4.25;3.10;;;9.80;99.90;;;;;;6153890;23;20484;-76
2023/12/12 04:08:56;;;;;;;3.88;2.58;;;9.90;99.90;;;;;;6153183;23;20408;-74
2023/12/12 04:11:42;;;;;;;4.15;1.98;;;9.90;99.90;;;;;;6152509;23;20451;-75
2023/12/12 04:14:28;;;;;;;3.60;2.15;;;9.90;99.90;;;;;;6150482;23;20347;-75
2023/12/12 04:17:14;;;;;;;3.63;2.13;;;9.90;99.90;;;;;;6152967;23;20364;-76
2023/12/12 04:20:00;;;;;;;2.67;1.73;;;9.80;99.90;;;;;;6153139;23;20017;-76
2023/12/12 04:22:46;;;;;;;2.00;1.40;;;9.80;99.90;;;;;;6152606;23;20040;-75
2023/12/12 04:25:33;;;;;;;2.38;1.80;;;9.80;99.90;;;;;;6152898;23;20006;-75
2023/12/12 04:28:18;;;;;;;2.13;1.33;;;9.80;99.90;;;;;;6149473;23;20447;-76
2023/12/12 04:31:04;;;;;;;2.47;1.65;;;9.80;99.90;;;;;;6151990;23;20340;-75
2023/12/12 04:33:50;;;;;;;3.88;1.50;;;9.80;99.90;;;;;;6151703;23;20017;-76
2023/12/12 04:36:36;;;;;;;2.38;1.60;;;9.80;99.90;;;;;;6151642;23;20084;-74
2023/12/12 04:39:22;;;;;;;3.78;1.70;;;9.80;99.90;;;;;;6151928;23;20071;-75
2023/12/12 04:42:08;;;;;;;2.97;1.52;;;9.80;99.90;;;;;;6151637;23;20001;-75
2023/12/12 04:44:54;;;;;;;1.95;1.70;;;9.80;99.90;;;;;;6152578;23;20327;-75
2023/12/12 04:47:40;;;;;;;3.10;1.80;;;9.70;99.90;;;;;;6152691;23;20009;-75
2023/12/12 04:50:26;;;;;;;2.13;1.73;;;9.70;99.90;;;;;;6151813;23;20006;-75
2023/12/12 04:53:12;;;;;;;4.68;2.45;;;9.70;99.90;;;;;;6152238;23;20060;-75
2023/12/12 04:55:58;;;;;;;5.18;2.50;;;9.70;99.90;;;;;;6150801;23;20092;-75
2023/12/12 04:58:44;;;;;;;6.68;2.55;;;9.70;99.90;;;;;;6152101;23;20443;-75
2023/12/12 05:01:31;;;;;;;5.75;2.38;;;9.70;99.90;;;;;;6151519;23;20010;-76
2023/12/12 05:04:17;;;;;;;4.55;2.83;;;9.70;99.90;;;;;;6149416;23;20008;-74
2023/12/12 05:07:03;;;;;;;4.20;2.33;;;9.70;99.90;;;;;;6151831;23;20340;-74
2023/12/12 05:09:49;;;;;;;4.03;2.10;;;9.70;99.90;;;;;;6150623;23;20017;-75
2023/12/12 05:12:35;;;;;;;5.05;2.47;;;9.70;99.90;;;;;;6152177;23;20041;-75
2023/12/12 05:15:21;;;;;;;4.18;2.15;;;9.70;99.90;;;;;;6152051;23;20448;-75
2023/12/12 05:18:07;;;;;;;7.95;2.75;;;9.70;99.90;;;;;;6152321;23;20440;-76
2023/12/12 05:20:53;;;;;;;5.45;2.60;;;9.70;99.90;;;;;;6149609;23;20017;-75
2023/12/12 05:23:39;;;;;;;4.30;2.70;;;9.70;99.90;;;;;;6151802;23;20064;-75
2023/12/12 05:26:25;;;;;;;4.80;3.10;;;9.60;99.90;;;;;;6152017;23;20403;-74
2023/12/12 05:29:11;;;;;;;4.43;2.65;;;9.60;99.90;;;;;;6151495;23;20013;-75
2023/12/12 05:31:57;;;;;;;5.85;2.67;;;9.60;99.90;;;;;;6150969;23;20428;-75
2023/12/12 05:34:43;;;;;;;6.03;2.90;;;9.60;99.90;;;;;;6152559;23;20009;-75
2023/12/12 05:37:28;;;;;;;5.95;3.08;;;9.60;99.90;;;;;;6150643;23;20080;-74
2023/12/12 05:40:15;;;;;;;3.67;2.40;;;9.60;99.90;;;;;;6152011;23;20080;-76
2023/12/12 05:43:00;;;;;;;5.15;2.65;;;9.60;99.90;;;;;;6152483;23;20421;-74
2023/12/12 05:45:47;;;;;;;4.65;2.83;;;9.60;99.90;;;;;;6151846;23;20450;-75
2023/12/12 05:48:33;;;;;;;7.10;3.47;;;9.60;99.90;;;;;;6149677;23;20014;-75
2023/12/12 05:51:19;;;;;;;4.20;2.90;;;9.60;99.90;;;;;;6152137;23;20088;-74
2023/12/12 05:54:05;;;;;;;4.80;3.03;;;9.50;99.90;;;;;;6151205;23;20439;-76
2023/12/12 05:56:51;;;;;;;5.15;3.65;;;9.50;99.90;;;;;;6151425;23;20052;-76
2023/12/12 05:59:37;;;;;;;6.40;2.72;;;9.60;99.90;;;;;;6150994;23;20020;-75
2023/12/12 06:02:26;;;;;;;12.38;3.13;;;9.60;99.90;;;;;;6147134;23;20006;-73
2023/12/12 06:05:12;;;;;;;4.82;2.90;;;9.60;99.90;;;;;;6147665;23;20006;-69
2023/12/12 06:07:58;;;;;;;7.65;3.42;;;9.60;99.90;;;;;;6148445;23;20016;-70
2023/12/12 06:10:44;;;;;;;5.82;3.20;;;9.50;99.90;;;;;;6149563;23;20316;-69
2023/12/12 06:13:30;;;;;;;6.88;3.30;;;9.60;99.90;;;;;;6152108;23;20359;-72
2023/12/12 06:16:17;;;;;;;4.53;2.72;;;9.60;99.90;;;;;;6152541;23;20005;-73
2023/12/12 06:19:04;;;;;;;4.65;2.60;;;9.60;99.90;;;;;;6151758;23;20207;-71
2023/12/12 06:21:53;;;;;;;5.35;3.13;;;9.60;99.90;;;;;;6149905;23;20041;-74
2023/12/12 06:24:39;;;;;;;4.88;2.67;;;9.60;99.90;;;;;;6152719;23;20134;-74
2023/12/12 06:27:25;;;;;;;5.57;2.83;;;9.60;99.90;;;;;;6152139;23;20052;-74
2023/12/12 06:30:11;;;;;;;3.88;2.33;;;9.60;99.90;;;;;;6151961;23;20022;-73
2023/12/12 06:32:57;;;;;;;4.85;3.35;;;9.60;99.90;;;;;;6150169;23;20436;-73
2023/12/12 06:35:43;;;;;;;7.38;4.07;;;9.60;99.90;;;;;;6153231;23;20450;-72
2023/12/12 06:38:29;;;;;;;4.13;2.90;;;9.60;99.90;;;;;;6152840;23;20020;-73
2023/12/12 06:41:15;;;;;;;5.35;2.95;;;9.60;99.90;;;;;;6152501;23;20016;-73
2023/12/12 06:44:01;;;;;;;5.47;3.63;;;9.50;99.90;;;;;;6152234;23;20010;-72
2023/12/12 06:46:46;;;;;;;5.13;3.35;;;9.50;99.90;;;;;;6152893;23;20486;-73
2023/12/12 06:49:32;;;;;;;4.43;3.08;;;9.50;99.90;;;;;;6152114;23;20017;-73
2023/12/12 06:52:20;;;;;;;9.45;4.18;;;9.50;99.90;;;;;;6152514;23;20006;-74
2023/12/12 06:55:06;;;;;;;6.75;3.53;;;9.50;99.90;;;;;;6152124;23;20015;-74
2023/12/12 06:57:52;;;;;;;10.00;3.20;;;9.50;99.90;;;;;;6151060;23;20005;-74
2023/12/12 07:00:40;;;;;;;7.35;4.05;;;9.50;99.90;;;;;;6152570;23;20417;-73
2023/12/12 07:03:26;;;;;;;5.30;4.03;;;9.50;99.90;;;;;;6149668;23;20027;-73
2023/12/12 07:06:12;;;;;;;6.93;3.55;;;9.50;99.90;;;;;;6149985;23;20010;-74
2023/12/12 07:08:57;;;;;;;5.68;3.70;;;9.40;99.90;;;;;;6152422;23;20451;-73
2023/12/12 07:11:44;;;;;;;5.57;3.65;;;9.40;99.90;;;;;;6152478;23;20007;-73
2023/12/12 07:14:30;;;;;;;5.10;3.50;;;9.40;99.90;;;;;;6151185;23;20012;-73
2023/12/12 07:17:16;;;;;;;5.63;3.85;;;9.50;99.90;;;;;;6149002;23;20150;-73
2023/12/12 07:20:03;;;;;;;10.82;3.72;;;9.50;99.90;;;;;;6153015;23;20332;-70
2023/12/12 07:22:49;;;;;;;6.43;4.03;;;9.50;99.90;;;;;;6147781;23;20014;-69
2023/12/12 07:25:35;;;;;;;7.63;4.28;;;9.50;99.90;;;;;;6153157;23;20077;-66
2023/12/12 07:28:22;;;;;;;7.63;4.80;;;9.50;99.90;;;;;;6152012;23;20097;-68
2023/12/12 07:31:10;;;;;;;7.70;4.20;;;9.50;99.90;;;;;;6151288;23;20006;-68
2023/12/12 07:33:55;;;;;;;8.60;4.85;;;9.60;99.90;;;;;;6150180;23;20045;-69
2023/12/12 07:36:41;;;;;;;8.50;4.35;;;9.60;99.90;;;;;;6153527;23;20088;-70
2023/12/12 07:39:27;;;;;;;6.75;4.45;;;9.60;99.90;;;;;;6151138;23;20033;-70
2023/12/12 07:42:13;;;;;;;10.27;3.95;;;9.60;99.90;;;;;;6150385;23;20005;-70
2023/12/12 07:44:59;;;;;;;9.52;5.43;;;9.60;99.90;;;;;;6151467;23;20009;-69
2023/12/12 07:47:46;;;;;;;6.70;4.93;;;9.50;99.90;;;;;;6151322;23;20018;-71
2023/12/12 07:50:32;;;;;;;6.90;4.03;;;9.50;99.90;;;;;;6149595;23;20104;-71
2023/12/12 07:53:18;;;;;;;11.48;4.60;;;9.50;99.90;;;;;;6152649;23;20041;-70
2023/12/12 07:56:05;;;;;;;6.93;3.85;;;9.50;99.90;;;;;;6151511;23;20024;-71
2023/12/12 07:58:51;;;;;;;8.05;4.80;;;9.60;99.90;;;;;;6149125;23;20451;-70
2023/12/12 08:01:39;;;;;;;7.90;4.22;;;9.60;99.90;;;;;;6150577;23;20459;-70
2023/12/12 08:04:25;;;;;;;8.68;4.50;;;9.60;99.90;;;;;;6149900;23;20455;-70
2023/12/12 08:07:10;;;;;;;8.75;4.50;;;9.60;99.90;;;;;;6151938;23;20032;-70
2023/12/12 08:09:56;;;;;;;7.85;4.22;;;9.60;99.90;;;;;;6151574;23;20028;-72
2023/12/12 08:12:43;;;;;;;6.88;4.20;;;9.60;99.90;;;;;;6151675;23;20466;-71
2023/12/12 08:15:28;;;;;;;9.45;4.15;;;9.60;99.90;;;;;;6149991;23;20005;-70
2023/12/12 08:18:14;;;;;;;13.20;5.30;;;9.50;99.90;;;;;;6153245;23;20501;-71
2023/12/12 08:21:00;;;;;;;11.10;4.43;;;9.60;99.90;;;;;;6151671;23;20067;-71
2023/12/12 08:23:48;;;;;;;8.40;4.70;;;9.60;99.90;;;;;;6151894;23;20013;-69
2023/12/12 08:26:44;;;;;;;9.88;4.90;;;9.50;99.90;;;;;;6150576;23;20363;-70
2023/12/12 08:29:30;;;;;;;9.77;5.40;;;9.60;99.90;;;;;;6148527;23;20045;-71
2023/12/12 08:32:16;;;;;;;11.52;5.25;;;9.60;99.90;;;;;;6151949;23;20001;-70
2023/12/12 08:35:04;;;;;;;10.00;5.30;;;9.60;99.90;;;;;;6153128;23;20013;-69
2023/12/12 08:37:50;;;;;;;9.60;6.10;;;9.60;99.90;;;;;;6150318;23;20127;-64
2023/12/12 08:40:35;;;;;;;7.50;4.80;;;9.60;99.90;;;;;;6152147;23;20006;-63
2023/12/12 08:43:22;;;;;;;7.13;4.40;;;9.60;99.90;;;;;;6150943;23;20040;-63
2023/12/12 08:46:08;;;;;;;8.82;4.90;;;9.60;99.90;;;;;;6151208;23;20005;-65
2023/12/12 08:48:55;;;;;;;7.30;4.38;;;9.60;99.90;;;;;;6151839;23;20216;-65
2023/12/12 08:51:41;;;;;;;8.82;4.90;;;9.60;99.90;;;;;;6149650;23;20009;-65
2023/12/12 08:54:27;;;;;;;6.68;4.35;;;9.70;99.90;;;;;;6151940;23;20017;-65
2023/12/12 08:57:15;;;;;;;31.85;7.30;;;9.70;99.90;;;;;;6151243;23;20076;-65
2023/12/12 09:00:03;;;;;;;15.10;5.38;;;9.70;99.90;;;;;;6149190;23;20024;-64
2023/12/12 09:02:49;;;;;;;12.02;5.53;;;9.70;99.90;;;;;;6147684;23;20142;-64
2023/12/12 09:05:36;;;;;;;10.43;4.30;;;9.70;99.90;;;;;;6152526;23;20084;-65
2023/12/12 09:08:22;;;;;;;14.63;4.20;;;9.70;99.90;;;;;;6146909;23;20326;-64
2023/12/12 09:11:09;;;;;;;7.00;3.92;;;9.80;99.90;;;;;;6150814;23;20085;-65
2023/12/12 09:13:55;;;;;;;8.48;4.13;;;9.80;99.90;;;;;;6151346;23;20002;-66
2023/12/12 09:16:41;;;;;;;8.00;4.57;;;9.80;99.90;;;;;;6152463;23;20317;-65
2023/12/12 09:19:27;;;;;;;11.00;4.00;;;9.80;99.90;;;;;;6151285;23;20013;-65
2023/12/12 09:22:12;;;;;;;6.18;4.32;;;9.80;99.90;;;;;;6152809;23;20025;-63
2023/12/12 09:24:58;;;;;;;6.65;3.88;;;9.80;99.90;;;;;;6150821;23;20016;-63
2023/12/12 09:27:45;;;;;;;9.35;3.85;;;9.80;99.90;;;;;;6151558;23;20017;-64
2023/12/12 09:30:31;;;;;;;7.53;3.88;;;9.90;99.90;;;;;;6147563;23;20372;-63
2023/12/12 09:33:17;;;;;;;8.88;4.90;;;9.80;99.90;;;;;;6150081;23;20081;-63
2023/12/12 09:36:04;;;;;;;9.05;4.85;;;9.90;99.90;;;;;;6151892;23;20002;-63
2023/12/12 09:38:50;;;;;;;5.85;3.58;;;9.90;99.90;;;;;;6148710;23;20593;-63
2023/12/12 09:41:37;;;;;;;7.05;3.65;;;9.90;99.90;;;;;;6152583;23;20002;-63
2023/12/12 09:44:23;;;;;;;8.48;3.45;;;9.90;99.90;;;;;;6151986;23;20009;-64
2023/12/12 09:47:10;;;;;;;6.05;3.72;;;9.90;99.90;;;;;;6151621;23;20005;-64
2023/12/12 09:49:58;;;;;;;4.63;2.85;;;9.90;99.90;;;;;;6151784;23;20404;-64
2023/12/12 09:52:47;;;;;;;10.02;4.15;;;9.90;99.90;;;;;;6153767;23;20331;-64
2023/12/12 09:55:33;;;;;;;4.72;3.17;;;9.90;99.90;;;;;;6152143;23;20515;-64
2023/12/12 09:58:19;;;;;;;6.15;3.40;;;9.90;99.90;;;;;;6152457;23;20060;-64
2023/12/12 10:01:06;;;;;;;9.15;3.95;;;9.90;99.90;;;;;;6152880;23;20056;-64
2023/12/12 10:03:54;;;;;;;10.02;4.35;;;9.90;99.90;;;;;;6151593;23;20005;-64
2023/12/12 10:06:42;;;;;;;6.93;3.20;;;9.90;99.90;;;;;;6152023;23;20354;-64
2023/12/12 10:09:31;;;;;;;6.78;3.58;;;9.80;99.90;;;;;;6151352;23;20514;-64
2023/12/12 10:12:17;;;;;;;8.10;3.95;;;9.90;99.90;;;;;;6151169;23;20044;-64
2023/12/12 10:15:19;;;;;;;42.95;9.02;;;9.90;99.90;;;;;;6153680;23;20013;-64
2023/12/12 10:18:05;;;;;;;10.52;4.72;;;9.90;99.90;;;;;;6152436;23;20009;-64
2023/12/12 10:20:51;;;;;;;5.72;3.53;;;9.90;99.90;;;;;;6154005;23;20081;-64
2023/12/12 10:23:44;;;;;;;6.32;3.67;;;9.80;99.90;;;;;;6152409;23;20044;-65
2023/12/12 10:26:32;;;;;;;7.82;4.53;;;9.90;99.90;;;;;;6153332;23;20009;-64
2023/12/12 10:29:20;;;;;;;4.78;3.15;;;9.90;99.90;;;;;;6150631;23;20141;-72
2023/12/12 10:32:06;;;;;;;4.72;2.40;;;9.80;99.90;;;;;;6153124;23;20013;-72
2023/12/12 10:34:52;;;;;;;5.85;2.78;;;9.80;99.90;;;;;;6151472;23;20448;-70
2023/12/12 10:37:37;;;;;;;6.47;3.38;;;9.80;99.90;;;;;;6152639;23;20360;-70
2023/12/12 10:40:23;;;;;;;6.53;3.92;;;9.80;99.90;;;;;;6153171;23;20013;-70
2023/12/12 10:43:10;;;;;;;7.60;2.90;;;9.80;99.90;;;;;;6148855;23;20044;-71
2023/12/12 10:45:57;;;;;;;6.50;3.30;;;9.80;99.90;;;;;;6152013;23;20041;-72
2023/12/12 10:48:46;;;;;;;5.38;2.90;;;9.90;99.90;;;;;;6152244;23;20017;-69
2023/12/12 10:51:32;;;;;;;7.22;3.47;;;9.80;99.90;;;;;;6150315;23;20010;-69
2023/12/12 10:54:21;;;;;;;5.88;3.28;;;9.90;99.90;;;;;;6152351;23;20344;-70
2023/12/12 10:57:09;;;;;;;9.02;4.03;;;9.90;99.90;;;;;;6149613;23;20025;-71
2023/12/12 10:59:56;;;;;;;5.38;3.28;;;9.90;99.90;;;;;;6150460;23;20518;-64
2023/12/12 11:02:44;;;;;;;8.57;3.70;;;10.00;99.90;;;;;;6151128;23;20002;-64
2023/12/12 11:05:30;;;;;;;5.72;3.10;;;9.90;99.90;;;;;;6150392;23;20005;-64
2023/12/12 11:08:19;;;;;;;9.77;3.67;;;10.00;99.90;;;;;;6150371;23;20010;-63
2023/12/12 11:11:12;;;;;;;5.40;3.35;;;10.10;99.90;;;;;;6150525;23;20121;-64
2023/12/12 11:14:00;;;;;;;10.73;4.60;;;10.10;99.90;;;;;;6150598;23;20399;-63
2023/12/12 11:16:49;;;;;;;8.80;3.78;;;10.10;99.90;;;;;;6169701;23;20135;-63
2023/12/12 11:19:35;;;;;;;6.57;3.70;;;10.20;99.90;;;;;;6150934;23;20009;-63
2023/12/12 11:22:38;;;;;;;11.23;5.00;;;10.20;99.90;;;;;;6151820;23;20391;-64
2023/12/12 11:25:29;;;;;;;6.47;3.75;;;10.30;99.90;;;;;;6152478;23;20017;-63
2023/12/12 11:28:14;;;;;;;7.45;4.00;;;10.30;99.90;;;;;;6151042;23;20420;-64
2023/12/12 11:31:01;;;;;;;8.07;3.55;;;10.30;99.90;;;;;;6152857;23;20005;-64
2023/12/12 11:34:07;;;;;;;8.55;4.53;;;10.40;99.90;;;;;;6152123;23;20092;-64
2023/12/12 11:36:54;;;;;;;5.38;3.30;;;10.40;99.90;;;;;;6150573;23;20005;-63
2023/12/12 11:39:49;;;;;;;10.45;3.60;;;10.50;99.90;;;;;;6150383;23;20092;-64
2023/12/12 11:42:35;;;;;;;6.30;3.42;;;10.60;99.90;;;;;;6149853;23;20001;-64
2023/12/12 11:45:32;;;;;;;8.75;3.63;;;10.60;99.90;;;;;;6152153;23;20014;-64
2023/12/12 11:48:18;;;;;;;9.38;4.03;;;10.60;99.90;;;;;;6150960;23;20017;-64
2023/12/12 11:51:33;;;;;;;8.00;3.63;;;10.60;99.90;;;;;;6150341;23;20076;-64
2023/12/12 11:54:21;;;;;;;6.55;3.60;;;10.70;99.90;;;;;;6151286;23;20140;-64
2023/12/12 11:57:08;;;;;;;7.40;3.83;;;10.70;99.90;;;;;;6150802;23;20515;-64
2023/12/12 11:59:53;;;;;;;8.63;3.70;;;10.70;99.90;;;;;;6150766;23;20048;-64
2023/12/12 12:02:40;;;;;;;6.80;3.88;;;10.70;99.90;;;;;;6150888;23;20005;-64
2023/12/12 12:05:26;;;;;;;6.43;3.97;;;10.70;99.90;;;;;;6151430;23;20632;-64
2023/12/12 12:08:12;;;;;;;7.47;4.00;;;10.80;99.90;;;;;;6151895;23;20013;-64
2023/12/12 12:10:58;;;;;;;4.72;2.78;;;10.80;99.90;;;;;;6151812;23;20005;-64
2023/12/12 12:13:44;;;;;;;6.30;3.35;;;10.80;99.90;;;;;;6150554;23;20380;-65
2023/12/12 12:16:30;;;;;;;9.82;3.50;;;10.90;99.90;;;;;;6150644;23;20081;-64
2023/12/12 12:19:33;;;;;;;4.97;2.90;;;10.90;99.90;;;;;;6153274;23;20241;-64
2023/12/12 12:22:19;;;;;;;4.70;3.05;;;10.90;99.90;;;;;;6149986;23;20375;-64
2023/12/12 12:25:06;;;;;;;14.77;3.50;;;10.90;99.90;;;;;;6151883;23;20006;-64
2023/12/12 12:27:56;;;;;;;5.68;2.83;;;10.90;99.90;;;;;;6149783;23;21853;-64
2023/12/12 12:30:46;;;;;;;14.32;3.35;;;11.00;99.90;;;;;;6150922;23;20451;-65
2023/12/12 12:33:33;;;;;;;5.60;3.22;;;11.00;99.90;;;;;;6150042;23;20037;-64
2023/12/12 12:36:19;;;;;;;7.95;3.90;;;11.00;99.90;;;;;;6149615;23;20063;-65
2023/12/12 12:39:05;;;;;;;6.38;3.88;;;11.00;99.90;;;;;;6152242;23;20013;-65
2023/12/12 12:41:54;;;;;;;9.85;4.18;;;11.00;99.90;;;;;;6151343;23;20076;-64
2023/12/12 12:44:41;;;;;;;5.82;3.78;;;11.00;99.90;;;;;;6150890;23;20112;-65
2023/12/12 12:47:27;;;;;;;8.02;4.10;;;11.10;99.90;;;;;;6149971;23;20068;-64
2023/12/12 12:50:13;;;;;;;9.43;3.63;;;11.00;99.90;;;;;;6151215;23;20018;-64
2023/12/12 12:53:00;;;;;;;6.72;3.55;;;11.00;99.90;;;;;;6151413;23;20016;-65
2023/12/12 12:55:47;;;;;;;5.53;3.10;;;11.00;99.90;;;;;;6151130;23;20017;-66
2023/12/12 12:58:33;;;;;;;6.68;3.55;;;10.90;99.90;;;;;;6150293;23;20009;-62
2023/12/12 13:01:19;;;;;;;5.55;3.50;;;11.00;99.90;;;;;;6152019;23;20006;-64
2023/12/12 13:04:05;;;;;;;4.68;2.38;;;10.90;99.90;;;;;;6149327;23;20014;-64
2023/12/12 13:06:53;;;;;;;7.63;3.50;;;10.90;99.90;;;;;;6151712;23;20005;-63
2023/12/12 13:09:39;;;;;;;6.30;2.92;;;10.80;99.90;;;;;;6149981;23;20445;-65
2023/12/12 13:12:26;;;;;;;5.30;2.95;;;10.80;99.90;;;;;;6151362;23;20090;-63
2023/12/12 13:15:12;;;;;;;7.38;3.13;;;10.80;99.90;;;;;;6149527;23;20005;-64
2023/12/12 13:17:58;;;;;;;14.82;6.82;;;10.70;99.90;;;;;;6149789;23;20108;-64
2023/12/12 13:20:45;;;;;;;9.73;5.57;;;10.70;99.90;;;;;;6150997;23;20006;-64
2023/12/12 13:23:31;;;;;;;10.70;4.82;;;10.70;99.90;;;;;;6150977;23;20014;-64
2023/12/12 13:26:17;;;;;;;5.38;3.25;;;10.70;99.90;;;;;;6150286;23;20522;-64
2023/12/12 13:29:03;;;;;;;6.53;2.60;;;10.70;99.90;;;;;;6149070;23;20025;-64
2023/12/12 13:31:49;;;;;;;4.07;2.70;;;10.70;99.90;;;;;;6151405;23;20005;-64
2023/12/12 13:34:35;;;;;;;5.18;2.83;;;10.70;99.90;;;;;;6151478;23;20084;-64
2023/12/12 13:37:21;;;;;;;8.55;3.05;;;10.70;99.90;;;;;;6150382;23;20016;-64
2023/12/12 13:40:08;;;;;;;4.50;2.35;;;10.60;99.90;;;;;;6150101;23;20025;-64
2023/12/12 13:42:54;;;;;;;4.55;2.45;;;10.60;99.90;;;;;;6169754;23;20444;-64
2023/12/12 13:45:40;;;;;;;5.90;2.60;;;10.60;99.90;;;;;;6151854;23;20440;-64
2023/12/12 13:48:26;;;;;;;4.47;2.88;;;10.60;99.90;;;;;;6152308;23;20014;-64
2023/12/12 13:51:12;;;;;;;4.20;2.90;;;10.50;99.90;;;;;;6151505;23;20032;-64
2023/12/12 13:53:58;;;;;;;5.93;2.72;;;10.50;99.90;;;;;;6148721;23;20484;-64
2023/12/12 13:56:44;;;;;;;6.85;3.03;;;10.50;99.90;;;;;;6150474;23;20024;-64
2023/12/12 13:59:30;;;;;;;6.28;2.58;;;10.50;99.90;;;;;;6150911;23;20072;-64
2023/12/12 14:02:16;;;;;;;7.68;3.50;;;10.50;99.90;;;;;;6151495;23;20099;-64
2023/12/12 14:05:02;;;;;;;6.45;3.00;;;10.50;99.90;;;;;;6148667;23;20010;-65
2023/12/12 14:07:49;;;;;;;7.20;4.03;;;10.40;99.90;;;;;;6151314;23;20033;-64
2023/12/12 14:10:35;;;;;;;6.72;4.30;;;10.50;99.90;;;;;;6147928;23;20092;-64
2023/12/12 14:13:22;;;;;;;8.13;3.75;;;10.50;99.90;;;;;;6149861;23;20016;-74
2023/12/12 14:16:08;;;;;;;6.93;3.60;;;10.50;99.90;;;;;;6149443;23;20006;-73
2023/12/12 14:18:55;;;;;;;6.22;3.42;;;10.50;99.90;;;;;;6151590;23;20006;-74
2023/12/12 14:21:40;;;;;;;8.85;4.38;;;10.50;99.90;;;;;;6147162;23;20018;-74
2023/12/12 14:24:27;;;;;;;9.27;4.20;;;10.50;99.90;;;;;;6150564;23;20056;-74
2023/12/12 14:27:13;;;;;;;6.97;3.50;;;10.40;99.90;;;;;;6150404;23;20009;-74
2023/12/12 14:29:59;;;;;;;12.65;4.88;;;10.40;99.90;;;;;;6148917;23;20104;-74
2023/12/12 14:32:45;;;;;;;9.13;3.72;;;10.40;99.90;;;;;;6152222;23;20006;-74
2023/12/12 14:35:31;;;;;;;9.82;3.45;;;10.40;99.90;;;;;;6153101;23;20452;-73